CHIUDI BANNER

Seguici su twitter Seguici su facebook
LIVE Streaming HD
Get Adobe Flash player
Dati meteo stazione (refresh automatico ogni minuto)
Senigallia VENTO: VELOCITÀ   PIOGGIA: QTA GIORNO TEMPERATURA: ATTUALE
SPOT: Darsena Di Senigallia RAFFICA MASSIMA: QTA MENSILE: MASSIMA:
VELOCITÀ MEDIA: QTA ANNUALE: MINIMA:
DIREZIONE: UMIDITÀ: WIND CHILL:
TIPO: DEW POINT:
BEAUFORT: PRESSIONE:
I nostri partner
Senigallia nelle ultime ore
Applica filtri in visualizzazione Intervallo delle letture nelle ultime

Ora Direzione Vento Velocita' Vento Media Vento Raffica Max. Temperatura Wind Chill Pioggia Pressione
18:11:2799 °(E)11.3 Kts10.4 Kts14.8 Kts21.6 °C18.4 °C0 mm1007.5 Hpa
18:06:22105 °(ESE)9.6 Kts9.6 Kts14.8 Kts21.7 °C18.7 °C0 mm1007.6 Hpa
18:02:03111 °(ESE)10.4 Kts10.4 Kts14.8 Kts21.7 °C18.5 °C0 mm1007.6 Hpa
17:56:5991 °(E)9.6 Kts10.4 Kts14.8 Kts21.7 °C18.6 °C0 mm1007.5 Hpa
17:51:52101 °(E)12.2 Kts11.3 Kts14.8 Kts21.7 °C18.3 °C0 mm1007.4 Hpa
17:46:4489 °(E)12.2 Kts10.4 Kts14.8 Kts21.7 °C18.6 °C0 mm1007.2 Hpa
17:41:47100 °(E)11.3 Kts10.4 Kts14.8 Kts21.7 °C18.5 °C0 mm1007.4 Hpa
17:36:22113 °(ESE)11.3 Kts11.3 Kts14.8 Kts21.7 °C18.5 °C0 mm1007.5 Hpa
17:31:1688 °(E)11.3 Kts10.4 Kts14.8 Kts21.7 °C18.7 °C0 mm1007.5 Hpa
17:27:12114 °(ESE)10.4 Kts11.3 Kts14.8 Kts21.7 °C18.5 °C0 mm1007.6 Hpa
17:22:06107 °(ESE)9.6 Kts11.3 Kts14.8 Kts21.9 °C18.6 °C0 mm1007.6 Hpa
17:17:0198 °(E)13 Kts10.4 Kts13.9 Kts22 °C18.9 °C0 mm1007.6 Hpa
17:11:5598 °(E)11.3 Kts9.6 Kts13.9 Kts22 °C19.2 °C0 mm1007.7 Hpa
17:06:46101 °(E)9.6 Kts7.8 Kts13.9 Kts22.1 °C19.9 °C0 mm1007.7 Hpa
17:01:42107 °(ESE)10.4 Kts7.8 Kts13.9 Kts22 °C19.8 °C0 mm1007.7 Hpa
16:57:15111 °(ESE)7.8 Kts8.7 Kts13.9 Kts21.9 °C19.2 °C0 mm1007.7 Hpa
16:52:07118 °(ESE)10.4 Kts9.6 Kts13.9 Kts21.9 °C19.1 °C0 mm1007.9 Hpa
16:47:00109 °(ESE)10.4 Kts10.4 Kts13.9 Kts21.9 °C18.9 °C0 mm1008 Hpa
16:41:37121 °(ESE)10.4 Kts10.4 Kts13.9 Kts22.1 °C19 °C0 mm1008 Hpa
16:36:53105 °(ESE)9.6 Kts10.4 Kts13.9 Kts22.4 °C19.4 °C0 mm1008.1 Hpa
16:31:3190 °(E)7.8 Kts8.7 Kts13 Kts22.7 °C20.4 °C0 mm1008.2 Hpa
16:26:2490 °(E)11.3 Kts5.2 Kts12.2 Kts23 °C22.1 °C0 mm1008.2 Hpa
16:21:1776 °(ENE)7 Kts4.3 Kts12.2 Kts23.1 °C22.6 °C0 mm1008.2 Hpa
16:17:1474 °(ENE)3.5 Kts4.3 Kts12.2 Kts23.2 °C22.6 °C0 mm1008.4 Hpa